Skip Navigation Links Skip Navigation Links

Current Weather

Fullerton Muni, Fullerton, Calif.

For information only: do not use for flight planning or navigation.
Latest weather
Observation time Tuesday, October 19, 2021 12:53 AM PDT
Local time Tuesday, October 19, 2021 1:34 AM PDT
Flight conditions Visual Meteorological Conditions
Winds
Wind direction East (80°)
Wind speed 5 mph
Visibility 10 mi.
Sky condition
Ceiling unlimited
Sky clear
Temperature 56°F
Dewpoint 47°F
Altimeter 29.99 in.Hg
Derived measurements
Relative humidity 72%
Density altitude -28 ft.
Sea-level pressure 29.98 in.Hg
Climate data
Temperature minimum, last 24 hours 56°F
Temperature maximum, last 24 hours 70°F
Remarks
Fully automated report.
Automated weather observing station with precipitation discriminator.
METAR KFUL 190753Z AUTO 08004KT 10SM CLR 13/08 A2999 RMK AO2 SLP153 T01330083 402110133

Settings

Location code

InnerDrive.Weather 4.0.6770.0 Release CLR 4.0.30319.42000
Copyright ©2018 Inner Drive Technology. All rights reserved. Portions Copyright ©1986-2018 David Braverman.

Find weather

Site navigation


Skip Navigation Links

Place info

Page info

PayPal - The safer, easier way to pay online!

Return home.

Copyright ©2021 Inner Drive Technology. Purveyors of fine, hand-crafted computer software. Page printed 2021-10-19T08:34:02 UTC.